createdAt,value
2023-05-16T00:00:53.359Z,13.80
2023-05-16T00:03:21.108Z,13.80
2023-05-16T00:05:48.488Z,13.80
2023-05-16T00:08:15.704Z,13.70
2023-05-16T00:10:43.020Z,13.70
2023-05-16T00:13:10.264Z,13.60
2023-05-16T00:15:38.725Z,13.60
2023-05-16T00:18:06.419Z,13.60
2023-05-16T00:20:34.224Z,13.60
2023-05-16T00:23:01.554Z,13.50
2023-05-16T00:25:29.019Z,13.60
2023-05-16T00:27:56.209Z,13.50
2023-05-16T00:30:23.484Z,13.50
2023-05-16T00:32:54.694Z,13.50
2023-05-16T00:35:22.167Z,13.50
2023-05-16T00:37:51.137Z,13.40
2023-05-16T00:40:18.550Z,13.50
2023-05-16T00:42:45.889Z,13.40
2023-05-16T00:45:13.130Z,13.40
2023-05-16T00:47:40.578Z,13.30
2023-05-16T00:50:08.194Z,13.20
2023-05-16T00:52:36.298Z,13.20
2023-05-16T00:55:04.602Z,13.10
2023-05-16T00:57:31.856Z,13.10
2023-05-16T00:59:59.398Z,12.90
2023-05-16T01:02:28.644Z,12.90
2023-05-16T01:04:56.893Z,12.90
2023-05-16T01:07:24.441Z,12.80
2023-05-16T01:09:51.807Z,12.80
2023-05-16T01:12:26.181Z,12.70
2023-05-16T01:14:59.085Z,12.70
2023-05-16T01:17:37.070Z,12.60
2023-05-16T01:20:17.244Z,12.60
2023-05-16T01:22:58.081Z,12.60
2023-05-16T01:25:32.411Z,12.50
2023-05-16T01:28:01.646Z,12.40
2023-05-16T01:30:35.436Z,12.30
2023-05-16T01:33:02.803Z,12.30
2023-05-16T01:35:30.564Z,12.30
2023-05-16T01:38:02.566Z,12.10
2023-05-16T01:40:34.334Z,12.20
2023-05-16T01:43:05.474Z,12.20
2023-05-16T01:45:35.234Z,12.40
2023-05-16T01:48:10.996Z,12.40
2023-05-16T01:50:45.093Z,12.30
2023-05-16T01:53:19.596Z,12.30
2023-05-16T01:55:49.826Z,12.40
2023-05-16T01:58:21.050Z,12.40
2023-05-16T02:00:48.543Z,12.60
2023-05-16T02:03:15.906Z,12.60
2023-05-16T02:05:43.268Z,12.70
2023-05-16T02:08:14.293Z,12.70
2023-05-16T02:10:42.294Z,12.70
2023-05-16T02:13:09.682Z,12.70
2023-05-16T02:15:37.138Z,12.70
2023-05-16T02:18:04.568Z,12.70
2023-05-16T02:20:31.872Z,12.70
2023-05-16T02:23:03.292Z,12.60
2023-05-16T02:25:32.876Z,12.50
2023-05-16T02:28:00.047Z,12.40
2023-05-16T02:30:27.606Z,12.30
2023-05-16T02:32:54.870Z,12.20
2023-05-16T02:35:22.346Z,12.10
2023-05-16T02:37:49.531Z,12.10
2023-05-16T02:40:17.483Z,12.10
2023-05-16T02:42:44.577Z,12.00
2023-05-16T02:45:12.612Z,11.90
2023-05-16T02:47:39.895Z,11.90
2023-05-16T02:50:07.588Z,11.80
2023-05-16T02:52:35.913Z,11.90
2023-05-16T02:55:20.980Z,11.80
2023-05-16T02:57:50.786Z,11.80
2023-05-16T03:00:18.967Z,11.80
2023-05-16T03:02:47.176Z,11.90
2023-05-16T03:05:14.400Z,11.80
2023-05-16T03:07:41.817Z,11.80
2023-05-16T03:10:09.356Z,11.70
2023-05-16T03:12:36.667Z,11.60
2023-05-16T03:15:04.359Z,11.60
2023-05-16T03:17:31.899Z,11.60
2023-05-16T03:19:59.095Z,11.50
2023-05-16T03:22:26.409Z,11.40
2023-05-16T03:24:53.525Z,11.40
2023-05-16T03:27:23.164Z,11.40
2023-05-16T03:29:50.461Z,11.30
2023-05-16T03:32:17.986Z,11.30
2023-05-16T03:34:45.158Z,11.30
2023-05-16T03:37:15.007Z,11.20
2023-05-16T03:39:42.088Z,11.20
2023-05-16T03:42:10.108Z,11.20
2023-05-16T03:44:37.326Z,11.10
2023-05-16T03:47:05.233Z,11.20
2023-05-16T03:49:32.325Z,11.10
2023-05-16T03:51:59.656Z,11.10
2023-05-16T03:54:27.130Z,11.00
2023-05-16T03:56:54.287Z,11.10
2023-05-16T03:59:21.574Z,11.00
2023-05-16T04:01:50.214Z,10.90
2023-05-16T04:04:17.438Z,10.90
2023-05-16T04:06:44.727Z,10.90
2023-05-16T04:09:12.557Z,10.90
2023-05-16T04:11:39.874Z,10.90
2023-05-16T04:14:07.511Z,10.90
2023-05-16T04:16:34.840Z,10.90
2023-05-16T04:19:02.320Z,10.80
2023-05-16T04:21:29.766Z,10.80
2023-05-16T04:23:57.864Z,10.80
2023-05-16T04:26:26.164Z,10.80
2023-05-16T04:28:53.845Z,10.80
2023-05-16T04:31:22.078Z,10.70
2023-05-16T04:33:49.992Z,10.80
2023-05-16T04:36:17.676Z,10.70
2023-05-16T04:38:46.915Z,10.70
2023-05-16T04:41:14.755Z,10.70
2023-05-16T04:43:42.231Z,10.70
2023-05-16T04:46:10.356Z,10.70
2023-05-16T04:48:37.813Z,10.60
2023-05-16T04:51:05.517Z,10.60
2023-05-16T04:53:32.930Z,10.50
2023-05-16T04:56:01.337Z,10.50
2023-05-16T04:58:28.657Z,10.50
2023-05-16T05:00:56.130Z,10.40
2023-05-16T05:03:23.757Z,10.40
2023-05-16T05:05:52.127Z,10.30
2023-05-16T05:08:19.558Z,10.30
2023-05-16T05:10:47.090Z,10.20
2023-05-16T05:13:14.329Z,10.20
2023-05-16T05:15:41.667Z,10.30
2023-05-16T05:18:09.213Z,10.30
2023-05-16T05:20:36.641Z,10.30
2023-05-16T05:23:04.016Z,10.30
2023-05-16T05:25:31.448Z,10.20
2023-05-16T05:27:58.733Z,10.30
2023-05-16T05:30:26.097Z,10.30
2023-05-16T05:32:55.323Z,10.40
2023-05-16T05:35:22.869Z,10.50
2023-05-16T05:37:50.138Z,10.50
2023-05-16T05:40:17.655Z,10.50
2023-05-16T05:42:46.911Z,10.60
2023-05-16T05:45:16.339Z,10.70
2023-05-16T05:47:44.495Z,10.70
2023-05-16T05:50:12.960Z,10.80
2023-05-16T05:52:40.480Z,10.90
2023-05-16T05:55:08.146Z,11.00
2023-05-16T05:57:35.425Z,11.00
2023-05-16T06:00:03.000Z,11.20
2023-05-16T06:02:36.284Z,11.20
2023-05-16T06:05:04.051Z,11.30
2023-05-16T06:07:31.320Z,11.40
2023-05-16T06:09:59.004Z,11.50
2023-05-16T06:12:26.310Z,11.60
2023-05-16T06:14:53.685Z,11.70
2023-05-16T06:17:21.066Z,11.80
2023-05-16T06:19:48.493Z,11.90
2023-05-16T06:22:15.827Z,12.00
2023-05-16T06:24:43.394Z,12.10
2023-05-16T06:27:10.887Z,12.20
2023-05-16T06:29:38.986Z,12.30
2023-05-16T06:32:06.695Z,12.40
2023-05-16T06:34:34.108Z,12.60
2023-05-16T06:37:03.785Z,12.60
2023-05-16T06:39:31.377Z,12.70
2023-05-16T06:41:58.661Z,12.90
2023-05-16T06:44:26.131Z,12.80
2023-05-16T06:46:53.544Z,12.80
2023-05-16T06:49:20.988Z,12.80
2023-05-16T06:51:48.258Z,12.80
2023-05-16T06:54:15.680Z,12.90
2023-05-16T06:56:42.933Z,13.10
2023-05-16T06:59:10.349Z,13.30
2023-05-16T07:01:37.769Z,13.50
2023-05-16T07:04:05.463Z,13.60
2023-05-16T07:06:33.046Z,13.80
2023-05-16T07:09:01.028Z,14.10
2023-05-16T07:11:28.496Z,14.30
2023-05-16T07:13:56.123Z,14.40
2023-05-16T07:16:24.586Z,14.40
2023-05-16T07:18:52.746Z,14.50
2023-05-16T07:21:20.158Z,14.80
2023-05-16T07:23:47.575Z,14.80
2023-05-16T07:26:14.900Z,14.90
2023-05-16T07:28:42.749Z,15.00
2023-05-16T07:31:10.159Z,15.20
2023-05-16T07:33:37.552Z,15.40
2023-05-16T07:36:16.308Z,15.40
2023-05-16T07:38:45.419Z,15.50
2023-05-16T07:41:12.932Z,15.70
2023-05-16T07:43:40.387Z,16.00
2023-05-16T07:46:07.798Z,16.20
2023-05-16T07:48:35.245Z,16.20
2023-05-16T07:51:02.666Z,16.20
2023-05-16T07:53:30.133Z,16.40
2023-05-16T07:55:57.468Z,16.20
2023-05-16T07:58:24.972Z,16.30
2023-05-16T08:00:52.315Z,16.50
2023-05-16T08:03:19.888Z,16.60
2023-05-16T08:05:49.007Z,16.80
2023-05-16T08:08:16.552Z,17.00
2023-05-16T08:10:44.052Z,17.10
2023-05-16T08:13:11.516Z,17.10
2023-05-16T08:15:38.968Z,17.00
2023-05-16T08:18:14.834Z,17.10
2023-05-16T08:20:42.992Z,17.20
2023-05-16T08:23:10.461Z,17.30
2023-05-16T08:25:37.973Z,17.50
2023-05-16T08:28:05.445Z,17.50
2023-05-16T08:30:32.874Z,17.50
2023-05-16T08:33:00.229Z,17.60
2023-05-16T08:35:28.041Z,17.70
2023-05-16T08:37:55.772Z,17.60
2023-05-16T08:40:26.510Z,17.50
2023-05-16T08:42:54.621Z,17.60
2023-05-16T08:45:23.833Z,17.60
2023-05-16T08:47:54.526Z,17.90
2023-05-16T08:50:22.218Z,18.10
2023-05-16T08:52:52.839Z,18.40
2023-05-16T08:55:22.508Z,18.50
2023-05-16T08:57:51.973Z,18.30
2023-05-16T09:00:20.150Z,17.60
2023-05-16T09:02:48.859Z,17.20
2023-05-16T09:05:17.720Z,17.20
2023-05-16T09:07:46.332Z,17.30
2023-05-16T09:10:14.127Z,17.70
2023-05-16T09:12:42.485Z,18.00
2023-05-16T09:15:11.469Z,18.20
2023-05-16T09:20:11.399Z,18.50
2023-05-16T09:22:39.419Z,18.70
2023-05-16T09:25:12.654Z,18.80
2023-05-16T09:27:48.842Z,18.90
2023-05-16T09:30:17.218Z,19.00
2023-05-16T09:32:46.292Z,19.20
2023-05-16T09:35:19.538Z,19.40
2023-05-16T09:37:55.302Z,19.50
2023-05-16T09:40:24.358Z,19.50
2023-05-16T09:43:02.629Z,19.60
2023-05-16T09:45:32.310Z,19.70
2023-05-16T09:48:04.999Z,19.60
2023-05-16T09:50:34.942Z,19.60
2023-05-16T09:53:03.302Z,19.70
2023-05-16T09:55:31.769Z,19.60
2023-05-16T09:57:59.224Z,19.50
2023-05-16T10:00:32.422Z,19.60
2023-05-16T10:03:05.420Z,19.60
2023-05-16T10:05:33.981Z,19.50
2023-05-16T10:08:04.519Z,19.70
2023-05-16T10:10:36.527Z,19.80
2023-05-16T10:13:07.680Z,20.20
2023-05-16T10:15:38.437Z,20.50
2023-05-16T10:18:12.249Z,20.60
2023-05-16T10:20:44.533Z,20.60
2023-05-16T10:23:17.586Z,20.50
2023-05-16T10:25:46.967Z,20.50
2023-05-16T10:28:16.489Z,20.60
2023-05-16T10:30:46.768Z,20.90
2023-05-16T10:33:16.857Z,21.00
2023-05-16T10:35:46.700Z,21.00
2023-05-16T10:38:17.984Z,20.90
2023-05-16T10:40:47.472Z,21.00
2023-05-16T10:43:25.638Z,20.90
2023-05-16T10:45:55.874Z,20.80
2023-05-16T10:48:26.539Z,20.70
2023-05-16T10:50:53.970Z,20.80
2023-05-16T10:53:29.659Z,20.90
2023-05-16T10:56:12.215Z,20.60
2023-05-16T10:58:42.864Z,20.70
2023-05-16T11:01:20.826Z,20.80
2023-05-16T11:03:51.807Z,20.70
2023-05-16T11:06:24.858Z,20.50
2023-05-16T11:08:55.865Z,20.60
2023-05-16T11:11:38.899Z,20.60
2023-05-16T11:14:06.393Z,20.70
2023-05-16T11:16:35.632Z,20.90
2023-05-16T11:19:07.108Z,21.00
2023-05-16T11:21:37.611Z,21.10
2023-05-16T11:24:07.933Z,21.10
2023-05-16T11:26:36.919Z,21.20
2023-05-16T11:29:04.790Z,21.50
2023-05-16T11:31:32.278Z,21.60
2023-05-16T11:33:59.672Z,21.40
2023-05-16T11:36:30.900Z,21.40
2023-05-16T11:39:09.672Z,21.50
2023-05-16T11:41:37.545Z,21.50
2023-05-16T11:44:06.722Z,21.50
2023-05-16T11:46:35.247Z,21.50
2023-05-16T11:49:04.840Z,21.60
2023-05-16T11:51:32.246Z,21.60
2023-05-16T11:53:59.667Z,21.20
2023-05-16T11:56:27.704Z,21.00
2023-05-16T11:58:55.243Z,20.90
2023-05-16T12:01:23.134Z,20.90
2023-05-16T12:03:57.085Z,21.00
2023-05-16T12:06:24.659Z,21.20
2023-05-16T12:08:52.811Z,21.40
2023-05-16T12:11:22.153Z,21.50
2023-05-16T12:13:50.081Z,21.50
2023-05-16T12:16:17.736Z,21.40
2023-05-16T12:18:45.810Z,21.40
2023-05-16T12:21:13.581Z,21.10
2023-05-16T12:23:42.555Z,21.00
2023-05-16T12:26:09.988Z,21.00
2023-05-16T12:28:39.478Z,21.10
2023-05-16T12:31:30.929Z,21.20
2023-05-16T12:33:59.816Z,21.20
2023-05-16T12:36:31.791Z,21.40
2023-05-16T12:39:03.129Z,21.40
2023-05-16T12:41:31.656Z,21.30
2023-05-16T12:44:20.111Z,21.20
2023-05-16T12:46:50.208Z,21.10
2023-05-16T12:49:20.354Z,21.20
2023-05-16T12:51:51.152Z,21.10
2023-05-16T12:54:19.046Z,21.20
2023-05-16T12:56:46.477Z,21.10
2023-05-16T12:59:14.554Z,21.00
2023-05-16T13:01:42.585Z,21.00
2023-05-16T13:04:14.829Z,21.00
2023-05-16T13:06:57.471Z,21.00
2023-05-16T13:09:31.148Z,21.00
2023-05-16T13:12:00.401Z,20.90
2023-05-16T13:14:28.054Z,20.80
2023-05-16T13:16:55.463Z,20.80
2023-05-16T13:19:24.600Z,20.90
2023-05-16T13:21:52.413Z,20.90
2023-05-16T13:24:19.867Z,20.80
2023-05-16T13:26:47.143Z,20.60
2023-05-16T13:29:14.926Z,20.50
2023-05-16T13:31:42.449Z,20.40
2023-05-16T13:34:09.854Z,20.40
2023-05-16T13:36:52.306Z,20.50
2023-05-16T13:39:22.488Z,20.50
2023-05-16T13:41:50.314Z,20.40
2023-05-16T13:44:18.368Z,20.40
2023-05-16T13:46:46.231Z,20.50
2023-05-16T13:49:13.708Z,20.30
2023-05-16T13:51:41.542Z,20.30
2023-05-16T13:54:09.068Z,20.20
2023-05-16T13:56:36.305Z,20.30
2023-05-16T13:59:06.982Z,20.30
2023-05-16T14:01:35.192Z,20.30
2023-05-16T14:04:03.200Z,20.30
2023-05-16T14:06:31.461Z,20.40
2023-05-16T14:08:58.793Z,20.40
2023-05-16T14:11:29.229Z,20.40
2023-05-16T14:13:58.171Z,20.40
2023-05-16T14:16:26.154Z,20.60
2023-05-16T14:18:53.645Z,20.50
2023-05-16T14:21:20.995Z,20.60
2023-05-16T14:23:48.921Z,20.60
2023-05-16T14:26:16.731Z,20.60
2023-05-16T14:28:44.975Z,20.50
2023-05-16T14:31:12.359Z,20.50
2023-05-16T14:33:41.181Z,20.50
2023-05-16T14:36:08.839Z,20.50
2023-05-16T14:38:36.824Z,20.50
2023-05-16T14:41:04.180Z,20.50
2023-05-16T14:43:31.855Z,20.40
2023-05-16T14:45:59.477Z,20.20
2023-05-16T14:48:26.944Z,20.20
2023-05-16T14:50:54.298Z,20.10
2023-05-16T14:53:21.880Z,20.30
2023-05-16T14:55:49.892Z,20.20
2023-05-16T14:58:17.309Z,20.10
2023-05-16T15:00:44.655Z,20.10
2023-05-16T15:03:15.053Z,20.10
2023-05-16T15:05:44.168Z,20.10
2023-05-16T15:08:11.460Z,20.10
2023-05-16T15:10:38.807Z,20.10
2023-05-16T15:13:06.124Z,20.10
2023-05-16T15:15:34.018Z,20.10
2023-05-16T15:18:01.703Z,20.00
2023-05-16T15:20:29.430Z,20.00
2023-05-16T15:22:56.993Z,20.00
2023-05-16T15:25:24.493Z,19.90
2023-05-16T15:27:51.833Z,19.90
2023-05-16T15:30:19.356Z,19.80
2023-05-16T15:32:46.658Z,19.90
2023-05-16T15:35:14.006Z,20.00
2023-05-16T15:37:41.425Z,20.00
2023-05-16T15:40:09.791Z,19.90
2023-05-16T15:42:37.171Z,19.90
2023-05-16T15:45:05.249Z,19.80
2023-05-16T15:47:32.835Z,19.70
2023-05-16T15:50:00.412Z,19.60
2023-05-16T15:52:28.708Z,19.60
2023-05-16T15:54:56.139Z,19.60
2023-05-16T15:57:23.414Z,19.70
2023-05-16T15:59:51.256Z,19.60
2023-05-16T16:02:18.624Z,19.70
2023-05-16T16:04:49.182Z,19.70
2023-05-16T16:07:16.519Z,19.70
2023-05-16T16:09:43.968Z,19.60
2023-05-16T16:12:11.257Z,19.60
2023-05-16T16:14:38.688Z,19.60
2023-05-16T16:17:05.988Z,19.60
2023-05-16T16:19:33.395Z,19.50
2023-05-16T16:22:00.799Z,19.50
2023-05-16T16:24:28.320Z,19.40
2023-05-16T16:26:55.548Z,19.40
2023-05-16T16:29:23.285Z,19.40
2023-05-16T16:31:50.781Z,19.40
2023-05-16T16:34:18.633Z,19.40
2023-05-16T16:36:47.489Z,19.40
2023-05-16T16:39:14.897Z,19.40
2023-05-16T16:41:42.346Z,19.40
2023-05-16T16:44:09.798Z,19.40
2023-05-16T16:46:37.746Z,19.50
2023-05-16T16:49:05.545Z,19.40
2023-05-16T16:51:35.609Z,19.30
2023-05-16T16:54:02.975Z,19.10
2023-05-16T16:56:30.250Z,19.00
2023-05-16T16:58:57.804Z,19.00
2023-05-16T17:01:27.089Z,19.00
2023-05-16T17:03:55.806Z,18.80
2023-05-16T17:06:23.590Z,18.80
2023-05-16T17:08:51.094Z,18.80
2023-05-16T17:11:23.009Z,18.80
2023-05-16T17:13:51.544Z,18.80
2023-05-16T17:16:18.793Z,18.70
2023-05-16T17:18:46.321Z,18.70
2023-05-16T17:21:13.686Z,18.60
2023-05-16T17:23:43.900Z,18.40
2023-05-16T17:26:13.940Z,18.40
2023-05-16T17:28:42.064Z,18.20
2023-05-16T17:31:09.443Z,18.10
2023-05-16T17:33:36.591Z,18.00
2023-05-16T17:36:04.170Z,17.90
2023-05-16T17:38:31.874Z,18.00
2023-05-16T17:40:59.126Z,17.90
2023-05-16T17:43:26.394Z,17.80
2023-05-16T17:45:53.604Z,17.80
2023-05-16T17:48:20.710Z,17.80
2023-05-16T17:50:47.943Z,17.80
2023-05-16T17:53:16.191Z,17.80
2023-05-16T17:55:43.420Z,17.80
2023-05-16T17:58:10.619Z,17.70
2023-05-16T18:00:38.541Z,17.60
2023-05-16T18:03:06.898Z,17.50
2023-05-16T18:05:34.466Z,17.40
2023-05-16T18:08:03.024Z,17.30
2023-05-16T18:10:36.848Z,17.30
2023-05-16T18:13:17.771Z,17.20
2023-05-16T18:15:44.983Z,17.30
2023-05-16T18:18:12.820Z,17.30
2023-05-16T18:20:41.043Z,17.20
2023-05-16T18:23:08.554Z,17.10
2023-05-16T18:25:35.857Z,17.20
2023-05-16T18:28:04.034Z,17.10
2023-05-16T18:30:31.227Z,17.10
2023-05-16T18:32:59.477Z,17.10
2023-05-16T18:35:28.379Z,17.10
2023-05-16T18:37:55.915Z,17.00
2023-05-16T18:40:23.191Z,16.90
2023-05-16T18:42:50.981Z,16.80
2023-05-16T18:45:18.192Z,16.80
2023-05-16T18:47:46.030Z,16.70
2023-05-16T18:50:13.340Z,16.60
2023-05-16T18:52:40.801Z,16.50
2023-05-16T18:55:08.364Z,16.40
2023-05-16T18:57:35.967Z,16.30
2023-05-16T19:00:04.157Z,16.30
2023-05-16T19:02:41.713Z,16.20
2023-05-16T19:05:10.687Z,16.10
2023-05-16T19:07:38.312Z,16.00
2023-05-16T19:10:05.979Z,15.90
2023-05-16T19:12:33.211Z,15.80
2023-05-16T19:15:00.607Z,15.70
2023-05-16T19:17:27.868Z,15.50
2023-05-16T19:19:55.086Z,15.40
2023-05-16T19:22:22.306Z,15.30
2023-05-16T19:24:49.494Z,15.20
2023-05-16T19:27:16.669Z,15.10
2023-05-16T19:29:43.869Z,15.10
2023-05-16T19:32:11.952Z,15.10
2023-05-16T19:34:39.314Z,15.00
2023-05-16T19:37:06.563Z,15.00
2023-05-16T19:39:33.771Z,15.10
2023-05-16T19:42:07.155Z,15.00
2023-05-16T19:44:35.259Z,15.00
2023-05-16T19:47:02.792Z,14.90
2023-05-16T19:49:31.972Z,14.80
2023-05-16T19:51:59.142Z,14.70
2023-05-16T19:54:26.482Z,14.60
2023-05-16T19:56:53.648Z,14.60
2023-05-16T19:59:22.492Z,14.50
2023-05-16T20:01:49.641Z,14.40
2023-05-16T20:04:16.956Z,14.40
2023-05-16T20:06:44.137Z,14.40
2023-05-16T20:09:11.454Z,14.40
2023-05-16T20:11:38.691Z,14.40
2023-05-16T20:14:05.980Z,14.30
2023-05-16T20:16:33.132Z,14.30
2023-05-16T20:19:00.654Z,14.20
2023-05-16T20:21:27.912Z,14.20
2023-05-16T20:23:55.250Z,14.10
2023-05-16T20:26:22.432Z,14.10
2023-05-16T20:28:49.738Z,14.00
2023-05-16T20:31:16.888Z,14.00
2023-05-16T20:33:44.114Z,13.90
2023-05-16T20:36:11.295Z,13.90
2023-05-16T20:38:38.927Z,13.80
2023-05-16T20:41:06.320Z,13.70
2023-05-16T20:43:33.551Z,13.70
2023-05-16T20:46:00.801Z,13.70
2023-05-16T20:48:28.066Z,13.60
2023-05-16T20:50:56.581Z,13.70
2023-05-16T20:53:23.794Z,13.60
2023-05-16T20:55:51.464Z,13.60
2023-05-16T20:58:18.750Z,13.50
2023-05-16T21:00:45.888Z,13.50
2023-05-16T21:03:13.166Z,13.50
2023-05-16T21:05:40.555Z,13.40
2023-05-16T21:08:07.920Z,13.40
2023-05-16T21:10:35.113Z,13.30
2023-05-16T21:13:02.351Z,13.30
2023-05-16T21:15:29.766Z,13.20
2023-05-16T21:17:57.285Z,13.10
2023-05-16T21:20:24.566Z,13.10
2023-05-16T21:22:51.814Z,13.00
2023-05-16T21:25:18.942Z,13.00
2023-05-16T21:27:46.223Z,12.90
2023-05-16T21:30:13.921Z,12.90
2023-05-16T21:32:41.165Z,12.90
2023-05-16T21:35:08.970Z,12.90
2023-05-16T21:37:36.238Z,12.90
2023-05-16T21:40:03.822Z,12.80
2023-05-16T21:42:31.098Z,12.80
2023-05-16T21:44:58.193Z,12.80
2023-05-16T21:47:26.221Z,12.70
2023-05-16T21:49:53.419Z,12.70
2023-05-16T21:52:20.672Z,12.70
2023-05-16T21:54:52.073Z,12.60
2023-05-16T21:57:19.873Z,12.60
2023-05-16T21:59:50.322Z,12.60
2023-05-16T22:02:22.785Z,12.70
2023-05-16T22:04:51.074Z,12.60
2023-05-16T22:07:18.889Z,12.50
2023-05-16T22:09:50.759Z,12.50
2023-05-16T22:12:18.122Z,12.40
2023-05-16T22:14:45.426Z,12.30
2023-05-16T22:17:12.689Z,12.30
2023-05-16T22:19:40.043Z,12.30
2023-05-16T22:22:07.271Z,12.30
2023-05-16T22:24:34.468Z,12.30
2023-05-16T22:27:01.677Z,12.20
2023-05-16T22:29:29.294Z,12.30
2023-05-16T22:31:56.606Z,12.20
2023-05-16T22:34:23.875Z,12.10
2023-05-16T22:36:51.892Z,12.10
2023-05-16T22:39:19.076Z,12.10
2023-05-16T22:41:46.988Z,12.00
2023-05-16T22:44:14.168Z,12.00
2023-05-16T22:46:41.400Z,12.00
2023-05-16T22:49:08.557Z,11.90
2023-05-16T22:51:35.894Z,11.90
2023-05-16T22:54:03.034Z,11.90
2023-05-16T22:56:30.512Z,11.80
2023-05-16T22:58:57.684Z,11.70
2023-05-16T23:01:24.872Z,11.70
2023-05-16T23:03:52.192Z,11.70
2023-05-16T23:06:19.423Z,11.70
2023-05-16T23:08:46.572Z,11.60
2023-05-16T23:11:13.832Z,11.60
2023-05-16T23:13:41.241Z,11.60
2023-05-16T23:16:08.631Z,11.60
2023-05-16T23:18:36.160Z,11.50
2023-05-16T23:21:03.603Z,11.40
2023-05-16T23:23:30.821Z,11.40
2023-05-16T23:25:58.101Z,11.40
2023-05-16T23:28:25.365Z,11.40
2023-05-16T23:30:52.626Z,11.30
2023-05-16T23:33:19.799Z,11.30
2023-05-16T23:35:47.139Z,11.20
2023-05-16T23:38:14.271Z,11.20
2023-05-16T23:40:41.526Z,11.10
2023-05-16T23:43:08.701Z,11.10
2023-05-16T23:45:35.981Z,11.10
2023-05-16T23:48:03.755Z,11.10
2023-05-16T23:50:31.121Z,11.10
2023-05-16T23:52:58.282Z,11.00
2023-05-16T23:55:25.601Z,11.00
2023-05-16T23:57:52.873Z,11.00
